N869KN TGPY-TGPZ
Flight info
| Callsign | N869KN |
|---|---|
| Flight time | N/A |
| Altitude | 5000 |
| Route | RABOT DCT OTPUR DCT BIBAR DCT DUSAL |
| Aircraft | C182/L-SDGRY/S |
Departure
| Time | 2026-05-04 17:55 |
|---|---|
| Airport | Maurice Bishop International Airport (TGPY) |
Arrival
| Time | N/A |
|---|---|
| Airport | Lauriston Airport (TGPZ) |
| Time | Latitude | Longitude | Altitude | Speed | Heading |
|---|---|---|---|---|---|
| 2026-05-04 17:54 | 12.00372 | -61.70856 | 1824 ft | 120 kts | 91° |
| 2026-05-04 17:55 | 12.00373 | -61.69999 | 1952 ft | 118 kts | 91° |
| 2026-05-04 17:55 | 12.00365 | -61.69179 | 2060 ft | 116 kts | 92° |
| 2026-05-04 17:55 | 12.00356 | -61.68367 | 2183 ft | 113 kts | 92° |
| 2026-05-04 17:55 | 12.00350 | -61.67565 | 2316 ft | 113 kts | 93° |
| 2026-05-04 17:56 | 12.00451 | -61.66766 | 2445 ft | 115 kts | 77° |
| 2026-05-04 17:56 | 12.00920 | -61.66091 | 2561 ft | 122 kts | 46° |
| 2026-05-04 17:56 | 12.01653 | -61.65640 | 2686 ft | 124 kts | 33° |
| 2026-05-04 17:56 | 12.02397 | -61.65210 | 2812 ft | 121 kts | 41° |
| 2026-05-04 17:57 | 12.02991 | -61.64622 | 2928 ft | 118 kts | 57° |
| 2026-05-04 17:57 | 12.03504 | -61.63977 | 3042 ft | 117 kts | 56° |
| 2026-05-04 17:57 | 12.04046 | -61.63362 | 3171 ft | 117 kts | 51° |
| 2026-05-04 17:57 | 12.04615 | -61.62769 | 3307 ft | 117 kts | 51° |
| 2026-05-04 17:58 | 12.05189 | -61.62176 | 3415 ft | 118 kts | 51° |
| 2026-05-04 17:58 | 12.05756 | -61.61585 | 3526 ft | 118 kts | 53° |
| 2026-05-04 17:58 | 12.06327 | -61.60990 | 3651 ft | 118 kts | 51° |
| 2026-05-04 17:58 | 12.06900 | -61.60397 | 3766 ft | 117 kts | 52° |
| 2026-05-04 17:59 | 12.07481 | -61.59797 | 3875 ft | 117 kts | 53° |
| 2026-05-04 17:59 | 12.08042 | -61.59216 | 3983 ft | 115 kts | 53° |
| 2026-05-04 17:59 | 12.09161 | -61.58056 | 4232 ft | 115 kts | 52° |
| 2026-05-04 18:00 | 12.09724 | -61.57475 | 4357 ft | 114 kts | 53° |
| 2026-05-04 18:00 | 12.10293 | -61.56910 | 4484 ft | 116 kts | 49° |
| 2026-05-04 18:00 | 12.11023 | -61.56505 | 4602 ft | 124 kts | 22° |
| 2026-05-04 18:00 | 12.11907 | -61.56526 | 4717 ft | 132 kts | 356° |
| 2026-05-04 18:01 | 12.12494 | -61.56702 | 4812 ft | 132 kts | 348° |
| 2026-05-04 18:01 | 12.13675 | -61.56989 | 4978 ft | 128 kts | 4° |
| 2026-05-04 18:01 | 12.14580 | -61.56932 | 5003 ft | 133 kts | 16° |
| 2026-05-04 18:02 | 12.16158 | -61.56775 | 5008 ft | 141 kts | 10° |
| 2026-05-04 18:02 | 12.17150 | -61.56757 | 5014 ft | 143 kts | 7° |
| 2026-05-04 18:02 | 12.18151 | -61.56749 | 5021 ft | 144 kts | 8° |
| 2026-05-04 18:02 | 12.19159 | -61.56735 | 5022 ft | 145 kts | 8° |
| 2026-05-04 18:03 | 12.20178 | -61.56719 | 5026 ft | 147 kts | 8° |
| 2026-05-04 18:03 | 12.21206 | -61.56704 | 5027 ft | 148 kts | 8° |
| 2026-05-04 18:03 | 12.22240 | -61.56691 | 5019 ft | 149 kts | 6° |
| 2026-05-04 18:03 | 12.23280 | -61.56678 | 5019 ft | 149 kts | 7° |
| 2026-05-04 18:04 | 12.24321 | -61.56665 | 5020 ft | 149 kts | 7° |
| 2026-05-04 18:04 | 12.25362 | -61.56651 | 5019 ft | 150 kts | 7° |
| 2026-05-04 18:04 | 12.27446 | -61.56624 | 5015 ft | 149 kts | 7° |
| 2026-05-04 18:05 | 12.28480 | -61.56611 | 5015 ft | 148 kts | 7° |
| 2026-05-04 18:05 | 12.29507 | -61.56598 | 5019 ft | 147 kts | 6° |
| 2026-05-04 18:05 | 12.30516 | -61.56584 | 5020 ft | 146 kts | 7° |
| 2026-05-04 18:05 | 12.31521 | -61.56571 | 5022 ft | 145 kts | 7° |
| 2026-05-04 18:06 | 12.33551 | -61.56543 | 4975 ft | 149 kts | 6° |
| 2026-05-04 18:06 | 12.34611 | -61.56525 | 4734 ft | 153 kts | 7° |
| 2026-05-04 18:06 | 12.35684 | -61.56510 | 4484 ft | 154 kts | 7° |
| 2026-05-04 18:07 | 12.36391 | -61.56502 | 4327 ft | 155 kts | 5° |